sensor_id;sensor_type;location;lat;lon;timestamp;pressure;altitude;pressure_sealevel;temperature;humidity
50790;BME280;37287;47.554;7.844;2023-02-20T00:00:46;99116.53;;;6.92;99.09
50790;BME280;37287;47.554;7.844;2023-02-20T00:03:14;99123.84;;;6.92;98.97
50790;BME280;37287;47.554;7.844;2023-02-20T00:05:41;99125.25;;;6.89;99.30
50790;BME280;37287;47.554;7.844;2023-02-20T00:08:10;99120.19;;;6.87;99.32
50790;BME280;37287;47.554;7.844;2023-02-20T00:10:36;99130.47;;;6.85;99.48
50790;BME280;37287;47.554;7.844;2023-02-20T00:13:05;99119.56;;;6.82;99.51
50790;BME280;37287;47.554;7.844;2023-02-20T00:15:34;99121.78;;;6.80;99.79
50790;BME280;37287;47.554;7.844;2023-02-20T00:18:00;99116.25;;;6.76;99.50
50790;BME280;37287;47.554;7.844;2023-02-20T00:20:27;99124.66;;;6.75;99.77
50790;BME280;37287;47.554;7.844;2023-02-20T00:22:55;99130.81;;;6.75;99.71
50790;BME280;37287;47.554;7.844;2023-02-20T00:25:22;99137.63;;;6.72;100.00
50790;BME280;37287;47.554;7.844;2023-02-20T00:27:49;99132.25;;;6.72;100.00
50790;BME280;37287;47.554;7.844;2023-02-20T00:30:20;99137.16;;;6.70;100.00
50790;BME280;37287;47.554;7.844;2023-02-20T00:32:49;99134.81;;;6.69;100.00
50790;BME280;37287;47.554;7.844;2023-02-20T00:35:17;99131.63;;;6.67;100.00
50790;BME280;37287;47.554;7.844;2023-02-20T00:37:46;99130.34;;;6.64;100.00
50790;BME280;37287;47.554;7.844;2023-02-20T00:40:13;99136.84;;;6.63;100.00
50790;BME280;37287;47.554;7.844;2023-02-20T00:42:40;99144.94;;;6.63;100.00
50790;BME280;37287;47.554;7.844;2023-02-20T00:45:11;99144.94;;;6.63;100.00
50790;BME280;37287;47.554;7.844;2023-02-20T00:47:39;99136.38;;;6.61;100.00
50790;BME280;37287;47.554;7.844;2023-02-20T00:50:06;99136.22;;;6.58;100.00
50790;BME280;37287;47.554;7.844;2023-02-20T00:52:33;99133.88;;;6.56;100.00
50790;BME280;37287;47.554;7.844;2023-02-20T00:55:02;99131.47;;;6.54;100.00
50790;BME280;37287;47.554;7.844;2023-02-20T00:57:29;99130.69;;;6.54;100.00
50790;BME280;37287;47.554;7.844;2023-02-20T00:59:59;99142.53;;;6.53;100.00
50790;BME280;37287;47.554;7.844;2023-02-20T01:02:28;99143.69;;;6.52;100.00
50790;BME280;37287;47.554;7.844;2023-02-20T01:04:55;99141.44;;;6.54;100.00
50790;BME280;37287;47.554;7.844;2023-02-20T01:07:22;99140.66;;;6.53;100.00
50790;BME280;37287;47.554;7.844;2023-02-20T01:09:49;99132.91;;;6.52;100.00
50790;BME280;37287;47.554;7.844;2023-02-20T01:12:15;99136.69;;;6.51;100.00
50790;BME280;37287;47.554;7.844;2023-02-20T01:14:42;99132.41;;;6.50;100.00
50790;BME280;37287;47.554;7.844;2023-02-20T01:17:11;99144.78;;;6.51;100.00
50790;BME280;37287;47.554;7.844;2023-02-20T01:19:38;99148.09;;;6.48;100.00
50790;BME280;37287;47.554;7.844;2023-02-20T01:22:04;99134.97;;;6.46;100.00
50790;BME280;37287;47.554;7.844;2023-02-20T01:24:34;99125.63;;;6.44;100.00
50790;BME280;37287;47.554;7.844;2023-02-20T01:27:00;99126.25;;;6.41;100.00
50790;BME280;37287;47.554;7.844;2023-02-20T01:29:29;99123.09;;;6.39;100.00
50790;BME280;37287;47.554;7.844;2023-02-20T01:31:55;99132.25;;;6.37;100.00
50790;BME280;37287;47.554;7.844;2023-02-20T01:34:22;99129.09;;;6.35;100.00
50790;BME280;37287;47.554;7.844;2023-02-20T01:36:51;99122.13;;;6.34;100.00
50790;BME280;37287;47.554;7.844;2023-02-20T01:39:37;99130.53;;;6.33;100.00
50790;BME280;37287;47.554;7.844;2023-02-20T01:42:06;99128.16;;;6.31;100.00
50790;BME280;37287;47.554;7.844;2023-02-20T01:44:36;99127.69;;;6.29;100.00
50790;BME280;37287;47.554;7.844;2023-02-20T01:47:06;99123.41;;;6.28;100.00
50790;BME280;37287;47.554;7.844;2023-02-20T01:49:57;99132.13;;;6.25;100.00
50790;BME280;37287;47.554;7.844;2023-02-20T01:52:27;99126.56;;;6.22;100.00
50790;BME280;37287;47.554;7.844;2023-02-20T01:55:01;99124.19;;;6.20;100.00
50790;BME280;37287;47.554;7.844;2023-02-20T01:57:30;99122.13;;;6.17;100.00
50790;BME280;37287;47.554;7.844;2023-02-20T02:00:08;99124.97;;;6.12;100.00
50790;BME280;37287;47.554;7.844;2023-02-20T02:02:40;99113.56;;;6.06;100.00
50790;BME280;37287;47.554;7.844;2023-02-20T02:05:10;99110.09;;;6.06;100.00
50790;BME280;37287;47.554;7.844;2023-02-20T02:07:38;99120.69;;;6.02;100.00
50790;BME280;37287;47.554;7.844;2023-02-20T02:10:28;99122.69;;;5.96;100.00
50790;BME280;37287;47.554;7.844;2023-02-20T02:12:58;99127.75;;;5.89;100.00
50790;BME280;37287;47.554;7.844;2023-02-20T02:15:26;99125.81;;;5.81;100.00
50790;BME280;37287;47.554;7.844;2023-02-20T02:26:06;99134.13;;;5.53;100.00
50790;BME280;37287;47.554;7.844;2023-02-20T02:39:24;99121.44;;;5.05;100.00
50790;BME280;37287;47.554;7.844;2023-02-20T02:42:01;99113.94;;;4.93;100.00
50790;BME280;37287;47.554;7.844;2023-02-20T02:47:06;99126.00;;;4.73;100.00
50790;BME280;37287;47.554;7.844;2023-02-20T02:49:45;99124.81;;;4.65;100.00
50790;BME280;37287;47.554;7.844;2023-02-20T02:52:22;99119.28;;;4.61;100.00
50790;BME280;37287;47.554;7.844;2023-02-20T02:55:19;99121.41;;;4.51;100.00
50790;BME280;37287;47.554;7.844;2023-02-20T02:57:51;99113.00;;;4.43;100.00
50790;BME280;37287;47.554;7.844;2023-02-20T03:00:21;99112.94;;;4.35;100.00
50790;BME280;37287;47.554;7.844;2023-02-20T03:02:59;99105.22;;;4.19;100.00
50790;BME280;37287;47.554;7.844;2023-02-20T03:05:31;99107.53;;;4.12;100.00
50790;BME280;37287;47.554;7.844;2023-02-20T03:08:14;99100.41;;;4.07;100.00
50790;BME280;37287;47.554;7.844;2023-02-20T03:10:49;99097.84;;;4.02;100.00
50790;BME280;37287;47.554;7.844;2023-02-20T03:13:21;99096.06;;;3.98;100.00
50790;BME280;37287;47.554;7.844;2023-02-20T03:16:10;99099.44;;;3.89;100.00
50790;BME280;37287;47.554;7.844;2023-02-20T03:18:40;99101.13;;;3.85;100.00
50790;BME280;37287;47.554;7.844;2023-02-20T03:21:14;99108.19;;;3.81;100.00
50790;BME280;37287;47.554;7.844;2023-02-20T03:23:48;99108.41;;;3.71;100.00
50790;BME280;37287;47.554;7.844;2023-02-20T03:26:19;99109.09;;;3.63;100.00
50790;BME280;37287;47.554;7.844;2023-02-20T03:29:02;99112.78;;;3.53;100.00
50790;BME280;37287;47.554;7.844;2023-02-20T03:31:47;99105.72;;;3.43;100.00
50790;BME280;37287;47.554;7.844;2023-02-20T03:34:21;99104.84;;;3.34;100.00
50790;BME280;37287;47.554;7.844;2023-02-20T03:37:15;99093.53;;;3.23;100.00
50790;BME280;37287;47.554;7.844;2023-02-20T03:40:06;99094.50;;;3.13;100.00
50790;BME280;37287;47.554;7.844;2023-02-20T03:43:00;99085.31;;;3.05;100.00
50790;BME280;37287;47.554;7.844;2023-02-20T03:45:50;99089.34;;;3.03;100.00
50790;BME280;37287;47.554;7.844;2023-02-20T03:51:04;99077.75;;;2.93;100.00
50790;BME280;37287;47.554;7.844;2023-02-20T03:53:31;99074.28;;;2.93;100.00
50790;BME280;37287;47.554;7.844;2023-02-20T03:56:02;99084.75;;;2.89;100.00
50790;BME280;37287;47.554;7.844;2023-02-20T03:58:39;99074.66;;;2.86;100.00
50790;BME280;37287;47.554;7.844;2023-02-20T04:01:10;99074.94;;;2.85;100.00
50790;BME280;37287;47.554;7.844;2023-02-20T04:03:43;99073.66;;;2.82;100.00
50790;BME280;37287;47.554;7.844;2023-02-20T04:06:13;99063.34;;;2.75;100.00
50790;BME280;37287;47.554;7.844;2023-02-20T04:08:51;99075.50;;;2.68;100.00
50790;BME280;37287;47.554;7.844;2023-02-20T04:11:24;99075.00;;;2.66;100.00
50790;BME280;37287;47.554;7.844;2023-02-20T04:13:53;99077.47;;;2.62;100.00
50790;BME280;37287;47.554;7.844;2023-02-20T04:16:23;99077.78;;;2.61;100.00
50790;BME280;37287;47.554;7.844;2023-02-20T04:18:50;99069.03;;;2.55;100.00
50790;BME280;37287;47.554;7.844;2023-02-20T04:21:33;99081.69;;;2.49;100.00
50790;BME280;37287;47.554;7.844;2023-02-20T04:24:13;99065.72;;;2.44;100.00
50790;BME280;37287;47.554;7.844;2023-02-20T04:26:42;99067.97;;;2.37;100.00
50790;BME280;37287;47.554;7.844;2023-02-20T04:29:10;99070.72;;;2.32;100.00
50790;BME280;37287;47.554;7.844;2023-02-20T04:31:39;99072.13;;;2.29;100.00
50790;BME280;37287;47.554;7.844;2023-02-20T04:34:05;99069.75;;;2.28;100.00
50790;BME280;37287;47.554;7.844;2023-02-20T04:36:34;99062.22;;;2.30;100.00
50790;BME280;37287;47.554;7.844;2023-02-20T04:39:01;99069.16;;;2.31;100.00
50790;BME280;37287;47.554;7.844;2023-02-20T04:41:27;99063.28;;;2.29;100.00
50790;BME280;37287;47.554;7.844;2023-02-20T04:43:54;99054.28;;;2.24;100.00
50790;BME280;37287;47.554;7.844;2023-02-20T04:46:41;99055.44;;;2.18;100.00
50790;BME280;37287;47.554;7.844;2023-02-20T04:49:11;99046.84;;;2.21;100.00
50790;BME280;37287;47.554;7.844;2023-02-20T04:51:38;99051.88;;;2.23;100.00
50790;BME280;37287;47.554;7.844;2023-02-20T04:54:04;99055.63;;;2.22;100.00
50790;BME280;37287;47.554;7.844;2023-02-20T04:56:32;99062.38;;;2.19;100.00
50790;BME280;37287;47.554;7.844;2023-02-20T04:59:02;99064.03;;;2.15;100.00
50790;BME280;37287;47.554;7.844;2023-02-20T05:01:29;99071.84;;;2.12;100.00
50790;BME280;37287;47.554;7.844;2023-02-20T05:03:57;99058.75;;;2.10;100.00
50790;BME280;37287;47.554;7.844;2023-02-20T05:06:24;99064.09;;;2.10;100.00
50790;BME280;37287;47.554;7.844;2023-02-20T05:08:50;99065.47;;;2.08;100.00
50790;BME280;37287;47.554;7.844;2023-02-20T05:11:17;99066.28;;;2.08;100.00
50790;BME280;37287;47.554;7.844;2023-02-20T05:13:43;99068.44;;;2.06;100.00
50790;BME280;37287;47.554;7.844;2023-02-20T05:16:10;99064.75;;;2.02;100.00
50790;BME280;37287;47.554;7.844;2023-02-20T05:18:41;99060.78;;;1.99;100.00
50790;BME280;37287;47.554;7.844;2023-02-20T05:21:12;99050.69;;;1.96;100.00
50790;BME280;37287;47.554;7.844;2023-02-20T05:23:59;99056.31;;;1.95;100.00
50790;BME280;37287;47.554;7.844;2023-02-20T05:26:26;99055.81;;;1.93;100.00
50790;BME280;37287;47.554;7.844;2023-02-20T05:28:53;99056.66;;;1.88;100.00
50790;BME280;37287;47.554;7.844;2023-02-20T05:31:21;99059.13;;;1.84;100.00
50790;BME280;37287;47.554;7.844;2023-02-20T05:33:48;99055.75;;;1.79;100.00
50790;BME280;37287;47.554;7.844;2023-02-20T05:36:15;99053.34;;;1.77;100.00
50790;BME280;37287;47.554;7.844;2023-02-20T05:38:44;99056.59;;;1.74;100.00
50790;BME280;37287;47.554;7.844;2023-02-20T05:41:14;99042.81;;;1.67;100.00
50790;BME280;37287;47.554;7.844;2023-02-20T05:43:41;99048.22;;;1.62;100.00
50790;BME280;37287;47.554;7.844;2023-02-20T05:46:09;99046.63;;;1.61;100.00
50790;BME280;37287;47.554;7.844;2023-02-20T05:48:37;99046.63;;;1.61;100.00
50790;BME280;37287;47.554;7.844;2023-02-20T05:51:05;99032.25;;;1.57;100.00
50790;BME280;37287;47.554;7.844;2023-02-20T05:53:32;99029.69;;;1.51;100.00
50790;BME280;37287;47.554;7.844;2023-02-20T05:55:58;99032.91;;;1.48;100.00
50790;BME280;37287;47.554;7.844;2023-02-20T05:58:25;99023.31;;;1.47;100.00
50790;BME280;37287;47.554;7.844;2023-02-20T06:00:54;99027.34;;;1.45;100.00
50790;BME280;37287;47.554;7.844;2023-02-20T06:03:20;99015.09;;;1.44;100.00
50790;BME280;37287;47.554;7.844;2023-02-20T06:05:47;99019.63;;;1.43;100.00
50790;BME280;37287;47.554;7.844;2023-02-20T06:08:13;99021.44;;;1.48;100.00
50790;BME280;37287;47.554;7.844;2023-02-20T06:10:40;99016.09;;;1.48;100.00
50790;BME280;37287;47.554;7.844;2023-02-20T06:13:08;99018.78;;;1.48;100.00
50790;BME280;37287;47.554;7.844;2023-02-20T06:15:46;99012.69;;;1.42;100.00
50790;BME280;37287;47.554;7.844;2023-02-20T06:18:12;99020.75;;;1.37;100.00
50790;BME280;37287;47.554;7.844;2023-02-20T06:20:39;99027.75;;;1.33;100.00
50790;BME280;37287;47.554;7.844;2023-02-20T06:23:06;99023.28;;;1.28;100.00
50790;BME280;37287;47.554;7.844;2023-02-20T06:25:32;99032.13;;;1.24;100.00
50790;BME280;37287;47.554;7.844;2023-02-20T06:27:59;99034.81;;;1.24;100.00
50790;BME280;37287;47.554;7.844;2023-02-20T06:30:27;99034.03;;;1.23;100.00
50790;BME280;37287;47.554;7.844;2023-02-20T06:32:54;99041.75;;;1.25;100.00
50790;BME280;37287;47.554;7.844;2023-02-20T06:35:22;99040.34;;;1.27;100.00
50790;BME280;37287;47.554;7.844;2023-02-20T06:37:55;99039.28;;;1.28;100.00
50790;BME280;37287;47.554;7.844;2023-02-20T06:40:21;99037.13;;;1.30;100.00
50790;BME280;37287;47.554;7.844;2023-02-20T06:42:48;99038.94;;;1.35;100.00
50790;BME280;37287;47.554;7.844;2023-02-20T06:45:15;99039.69;;;1.41;100.00
50790;BME280;37287;47.554;7.844;2023-02-20T06:47:44;99035.84;;;1.47;100.00
50790;BME280;37287;47.554;7.844;2023-02-20T06:50:10;99040.84;;;1.53;100.00
50790;BME280;37287;47.554;7.844;2023-02-20T06:52:39;99041.81;;;1.63;100.00
50790;BME280;37287;47.554;7.844;2023-02-20T06:55:06;99051.56;;;1.73;100.00
50790;BME280;37287;47.554;7.844;2023-02-20T06:57:36;99056.75;;;1.83;100.00
50790;BME280;37287;47.554;7.844;2023-02-20T07:00:05;99050.78;;;1.91;100.00
50790;BME280;37287;47.554;7.844;2023-02-20T07:02:32;99046.06;;;2.02;100.00
50790;BME280;37287;47.554;7.844;2023-02-20T07:05:00;99045.34;;;2.15;100.00
50790;BME280;37287;47.554;7.844;2023-02-20T07:07:26;99046.25;;;2.24;100.00
50790;BME280;37287;47.554;7.844;2023-02-20T07:09:53;99053.13;;;2.31;100.00
50790;BME280;37287;47.554;7.844;2023-02-20T07:12:20;99052.38;;;2.44;100.00
50790;BME280;37287;47.554;7.844;2023-02-20T07:14:49;99051.22;;;2.50;100.00
50790;BME280;37287;47.554;7.844;2023-02-20T07:17:16;99044.00;;;2.65;100.00
50790;BME280;37287;47.554;7.844;2023-02-20T07:19:42;99040.78;;;2.82;100.00
50790;BME280;37287;47.554;7.844;2023-02-20T07:22:11;99049.38;;;2.92;100.00
50790;BME280;37287;47.554;7.844;2023-02-20T07:24:38;99048.41;;;3.02;100.00
50790;BME280;37287;47.554;7.844;2023-02-20T07:27:07;99045.06;;;3.10;100.00
50790;BME280;37287;47.554;7.844;2023-02-20T07:29:36;99047.25;;;3.22;100.00
50790;BME280;37287;47.554;7.844;2023-02-20T07:32:02;99046.22;;;3.32;100.00
50790;BME280;37287;47.554;7.844;2023-02-20T07:34:29;99047.13;;;3.27;100.00
50790;BME280;37287;47.554;7.844;2023-02-20T07:36:56;99045.34;;;3.37;100.00
50790;BME280;37287;47.554;7.844;2023-02-20T07:39:22;99043.38;;;3.56;100.00
50790;BME280;37287;47.554;7.844;2023-02-20T07:41:52;99045.13;;;3.75;100.00
50790;BME280;37287;47.554;7.844;2023-02-20T07:44:23;99050.25;;;3.85;100.00
50790;BME280;37287;47.554;7.844;2023-02-20T07:46:49;99039.78;;;3.98;100.00
50790;BME280;37287;47.554;7.844;2023-02-20T07:49:16;99044.03;;;3.99;100.00
50790;BME280;37287;47.554;7.844;2023-02-20T07:51:44;99042.03;;;4.04;100.00
50790;BME280;37287;47.554;7.844;2023-02-20T07:54:13;99044.56;;;4.23;100.00
50790;BME280;37287;47.554;7.844;2023-02-20T07:56:40;99039.81;;;4.43;100.00
50790;BME280;37287;47.554;7.844;2023-02-20T07:59:09;99041.19;;;4.63;100.00
50790;BME280;37287;47.554;7.844;2023-02-20T08:01:35;99040.13;;;4.73;100.00
50790;BME280;37287;47.554;7.844;2023-02-20T08:04:02;99035.59;;;4.82;100.00
50790;BME280;37287;47.554;7.844;2023-02-20T08:06:29;99043.88;;;4.94;100.00
50790;BME280;37287;47.554;7.844;2023-02-20T08:08:57;99036.41;;;5.23;100.00
50790;BME280;37287;47.554;7.844;2023-02-20T08:11:25;99045.94;;;5.38;100.00
50790;BME280;37287;47.554;7.844;2023-02-20T08:13:52;99041.22;;;5.52;100.00
50790;BME280;37287;47.554;7.844;2023-02-20T08:16:21;99044.09;;;5.73;100.00
50790;BME280;37287;47.554;7.844;2023-02-20T08:18:50;99045.38;;;5.84;100.00
50790;BME280;37287;47.554;7.844;2023-02-20T08:21:21;99041.63;;;6.03;100.00
50790;BME280;37287;47.554;7.844;2023-02-20T08:23:48;99037.19;;;6.25;100.00
50790;BME280;37287;47.554;7.844;2023-02-20T08:26:15;99032.13;;;6.41;98.75
50790;BME280;37287;47.554;7.844;2023-02-20T08:28:41;99035.53;;;6.59;97.85
50790;BME280;37287;47.554;7.844;2023-02-20T08:31:09;99035.03;;;6.83;96.62
50790;BME280;37287;47.554;7.844;2023-02-20T08:33:56;99035.59;;;6.97;95.96
50790;BME280;37287;47.554;7.844;2023-02-20T08:36:29;99035.81;;;7.22;95.20
50790;BME280;37287;47.554;7.844;2023-02-20T08:38:57;99039.06;;;7.36;92.93
50790;BME280;37287;47.554;7.844;2023-02-20T08:41:26;99030.63;;;7.47;92.72
50790;BME280;37287;47.554;7.844;2023-02-20T08:43:52;99039.25;;;7.61;92.18
50790;BME280;37287;47.554;7.844;2023-02-20T08:46:23;99032.19;;;7.78;91.24
50790;BME280;37287;47.554;7.844;2023-02-20T08:48:49;99036.44;;;7.79;88.50
50790;BME280;37287;47.554;7.844;2023-02-20T08:51:19;99035.50;;;7.96;89.20
50790;BME280;37287;47.554;7.844;2023-02-20T08:53:46;99032.19;;;7.78;88.25
50790;BME280;37287;47.554;7.844;2023-02-20T08:56:17;99025.66;;;7.79;88.36
50790;BME280;37287;47.554;7.844;2023-02-20T08:58:46;99036.06;;;7.89;88.29
50790;BME280;37287;47.554;7.844;2023-02-20T09:01:12;99027.03;;;8.06;87.39
50790;BME280;37287;47.554;7.844;2023-02-20T09:03:39;99029.97;;;8.34;87.67
50790;BME280;37287;47.554;7.844;2023-02-20T09:06:08;99028.47;;;8.58;86.98
50790;BME280;37287;47.554;7.844;2023-02-20T09:08:36;99018.06;;;8.69;85.93
50790;BME280;37287;47.554;7.844;2023-02-20T09:11:04;99019.91;;;8.89;85.72
50790;BME280;37287;47.554;7.844;2023-02-20T09:13:44;99021.03;;;9.01;84.65
50790;BME280;37287;47.554;7.844;2023-02-20T09:16:15;99019.09;;;9.01;85.04
50790;BME280;37287;47.554;7.844;2023-02-20T09:18:43;99011.69;;;9.10;84.04
50790;BME280;37287;47.554;7.844;2023-02-20T09:21:13;99021.81;;;9.38;84.64
50790;BME280;37287;47.554;7.844;2023-02-20T09:23:40;99016.19;;;9.31;82.04
50790;BME280;37287;47.554;7.844;2023-02-20T09:26:07;99014.38;;;9.48;83.99
50790;BME280;37287;47.554;7.844;2023-02-20T09:28:36;99012.28;;;9.81;83.67
50790;BME280;37287;47.554;7.844;2023-02-20T09:31:03;99008.25;;;10.04;82.14
50790;BME280;37287;47.554;7.844;2023-02-20T09:33:31;99015.63;;;10.19;80.99
50790;BME280;37287;47.554;7.844;2023-02-20T09:36:04;99012.50;;;10.17;80.38
50790;BME280;37287;47.554;7.844;2023-02-20T09:38:31;99009.56;;;10.51;80.69
50790;BME280;37287;47.554;7.844;2023-02-20T09:40:58;99009.34;;;10.88;77.11
50790;BME280;37287;47.554;7.844;2023-02-20T09:46:14;99002.69;;;11.52;72.46
50790;BME280;37287;47.554;7.844;2023-02-20T09:51:27;99002.91;;;13.88;65.87
50790;BME280;37287;47.554;7.844;2023-02-20T09:56:34;98999.91;;;15.17;59.24
50790;BME280;37287;47.554;7.844;2023-02-20T09:59:28;99005.28;;;15.69;57.39
50790;BME280;37287;47.554;7.844;2023-02-20T10:02:08;99001.22;;;15.41;56.64
50790;BME280;37287;47.554;7.844;2023-02-20T10:04:41;98991.94;;;15.49;57.60
50790;BME280;37287;47.554;7.844;2023-02-20T10:07:30;98991.25;;;15.70;55.99
50790;BME280;37287;47.554;7.844;2023-02-20T10:10:17;98986.47;;;15.49;55.51
50790;BME280;37287;47.554;7.844;2023-02-20T10:12:53;98987.31;;;15.57;56.98
50790;BME280;37287;47.554;7.844;2023-02-20T10:15:33;98989.47;;;15.29;55.89
50790;BME280;37287;47.554;7.844;2023-02-20T10:20:37;98982.53;;;13.74;61.91
50790;BME280;37287;47.554;7.844;2023-02-20T10:25:54;98985.25;;;12.98;65.34
50790;BME280;37287;47.554;7.844;2023-02-20T10:28:23;98983.34;;;12.75;66.90
50790;BME280;37287;47.554;7.844;2023-02-20T10:33:40;98978.88;;;12.86;67.57
50790;BME280;37287;47.554;7.844;2023-02-20T10:36:19;98968.63;;;12.99;67.59
50790;BME280;37287;47.554;7.844;2023-02-20T10:38:52;98963.31;;;13.10;68.17
50790;BME280;37287;47.554;7.844;2023-02-20T10:41:34;98956.69;;;13.07;67.61
50790;BME280;37287;47.554;7.844;2023-02-20T10:44:18;98957.59;;;13.15;67.53
50790;BME280;37287;47.554;7.844;2023-02-20T10:47:01;98951.41;;;13.18;66.94
50790;BME280;37287;47.554;7.844;2023-02-20T10:49:44;98949.00;;;13.13;66.99
50790;BME280;37287;47.554;7.844;2023-02-20T10:52:21;98944.94;;;13.00;65.96
50790;BME280;37287;47.554;7.844;2023-02-20T10:57:44;98925.59;;;12.78;67.91
50790;BME280;37287;47.554;7.844;2023-02-20T11:00:30;98918.69;;;13.11;66.43
50790;BME280;37287;47.554;7.844;2023-02-20T11:03:04;98911.84;;;13.21;63.82
50790;BME280;37287;47.554;7.844;2023-02-20T11:05:40;98894.63;;;13.13;65.12
50790;BME280;37287;47.554;7.844;2023-02-20T11:08:08;98892.72;;;13.17;64.69
50790;BME280;37287;47.554;7.844;2023-02-20T11:10:35;98888.66;;;13.31;65.47
50790;BME280;37287;47.554;7.844;2023-02-20T11:13:08;98882.53;;;13.37;65.01
50790;BME280;37287;47.554;7.844;2023-02-20T11:15:41;98888.03;;;13.41;65.01
50790;BME280;37287;47.554;7.844;2023-02-20T11:18:18;98897.63;;;13.62;64.84
50790;BME280;37287;47.554;7.844;2023-02-20T11:20:46;98909.41;;;13.73;63.93
50790;BME280;37287;47.554;7.844;2023-02-20T11:23:41;98923.91;;;13.50;60.37
50790;BME280;37287;47.554;7.844;2023-02-20T11:28:59;98893.69;;;13.59;61.28
50790;BME280;37287;47.554;7.844;2023-02-20T11:31:27;98863.06;;;13.66;61.53
50790;BME280;37287;47.554;7.844;2023-02-20T11:33:56;98847.53;;;13.70;60.42
50790;BME280;37287;47.554;7.844;2023-02-20T11:36:26;98836.03;;;13.84;60.75
50790;BME280;37287;47.554;7.844;2023-02-20T11:39:11;98836.88;;;13.91;58.75
50790;BME280;37287;47.554;7.844;2023-02-20T11:41:42;98844.69;;;13.93;59.07
50790;BME280;37287;47.554;7.844;2023-02-20T11:46:36;98841.16;;;13.92;58.48
50790;BME280;37287;47.554;7.844;2023-02-20T11:49:07;98831.13;;;14.00;57.60
50790;BME280;37287;47.554;7.844;2023-02-20T11:51:46;98833.16;;;14.07;56.26
50790;BME280;37287;47.554;7.844;2023-02-20T11:54:20;98814.19;;;14.21;57.79
50790;BME280;37287;47.554;7.844;2023-02-20T12:07:33;98769.56;;;14.40;57.57
50790;BME280;37287;47.554;7.844;2023-02-20T12:10:15;98764.72;;;14.12;52.62
50790;BME280;37287;47.554;7.844;2023-02-20T12:12:46;98766.00;;;14.25;57.04
50790;BME280;37287;47.554;7.844;2023-02-20T12:15:17;98754.34;;;14.28;57.22
50790;BME280;37287;47.554;7.844;2023-02-20T12:18:10;98752.81;;;14.31;55.16
50790;BME280;37287;47.554;7.844;2023-02-20T12:20:48;98757.94;;;14.43;56.98
50790;BME280;37287;47.554;7.844;2023-02-20T12:23:26;98754.91;;;14.59;56.35
50790;BME280;37287;47.554;7.844;2023-02-20T12:27:01;98748.25;;;14.53;56.79
50790;BME280;37287;47.554;7.844;2023-02-20T12:29:14;98744.31;;;14.47;56.30
50790;BME280;37287;47.554;7.844;2023-02-20T12:34:41;98744.13;;;14.74;55.23
50790;BME280;37287;47.554;7.844;2023-02-20T12:37:32;98738.66;;;14.74;55.71
50790;BME280;37287;47.554;7.844;2023-02-20T12:40:21;98727.41;;;14.79;55.57
50790;BME280;37287;47.554;7.844;2023-02-20T12:43:02;98725.91;;;14.96;56.29
50790;BME280;37287;47.554;7.844;2023-02-20T12:45:38;98714.16;;;14.81;54.77
50790;BME280;37287;47.554;7.844;2023-02-20T12:48:51;98704.81;;;14.82;54.32
50790;BME280;37287;47.554;7.844;2023-02-20T12:51:32;98711.88;;;14.90;55.62
50790;BME280;37287;47.554;7.844;2023-02-20T12:59:42;98707.28;;;15.16;53.63
50790;BME280;37287;47.554;7.844;2023-02-20T13:02:32;98701.84;;;15.27;54.53
50790;BME280;37287;47.554;7.844;2023-02-20T13:05:11;98704.19;;;15.28;54.28
50790;BME280;37287;47.554;7.844;2023-02-20T13:08:08;98710.78;;;15.20;52.88
50790;BME280;37287;47.554;7.844;2023-02-20T13:13:16;98694.00;;;15.11;52.77
50790;BME280;37287;47.554;7.844;2023-02-20T13:15:57;98699.06;;;15.09;52.11
50790;BME280;37287;47.554;7.844;2023-02-20T13:20:59;98692.81;;;15.08;52.40
50790;BME280;37287;47.554;7.844;2023-02-20T13:23:31;98684.63;;;15.08;52.48
50790;BME280;37287;47.554;7.844;2023-02-20T13:26:42;98692.06;;;15.11;52.67
50790;BME280;37287;47.554;7.844;2023-02-20T13:28:50;98685.44;;;15.02;52.77
50790;BME280;37287;47.554;7.844;2023-02-20T13:31:23;98685.41;;;14.94;52.35
50790;BME280;37287;47.554;7.844;2023-02-20T13:36:37;98671.69;;;14.80;50.77
50790;BME280;37287;47.554;7.844;2023-02-20T13:44:50;98667.47;;;14.86;51.11
50790;BME280;37287;47.554;7.844;2023-02-20T13:47:32;98656.91;;;14.81;49.54
50790;BME280;37287;47.554;7.844;2023-02-20T13:50:02;98648.75;;;14.85;51.46
50790;BME280;37287;47.554;7.844;2023-02-20T13:52:37;98649.91;;;14.87;51.87
50790;BME280;37287;47.554;7.844;2023-02-20T14:00:52;98637.09;;;14.88;49.35
50790;BME280;37287;47.554;7.844;2023-02-20T14:03:22;98639.03;;;14.91;51.85
50790;BME280;37287;47.554;7.844;2023-02-20T14:08:35;98631.66;;;14.95;52.15
50790;BME280;37287;47.554;7.844;2023-02-20T14:11:09;98637.88;;;14.95;52.13
50790;BME280;37287;47.554;7.844;2023-02-20T14:13:39;98626.97;;;14.92;51.94
50790;BME280;37287;47.554;7.844;2023-02-20T14:18:59;98624.63;;;14.90;52.45
50790;BME280;37287;47.554;7.844;2023-02-20T14:21:26;98624.66;;;14.98;53.26
50790;BME280;37287;47.554;7.844;2023-02-20T14:23:55;98611.41;;;14.96;53.76
50790;BME280;37287;47.554;7.844;2023-02-20T14:26:29;98608.25;;;14.83;52.96
50790;BME280;37287;47.554;7.844;2023-02-20T14:29:00;98607.44;;;14.68;53.57
50790;BME280;37287;47.554;7.844;2023-02-20T14:31:33;98607.03;;;14.63;53.76
50790;BME280;37287;47.554;7.844;2023-02-20T14:40:06;98597.22;;;14.51;50.76
50790;BME280;37287;47.554;7.844;2023-02-20T14:42:36;98597.22;;;14.54;52.78
50790;BME280;37287;47.554;7.844;2023-02-20T14:45:13;98598.00;;;14.51;51.46
50790;BME280;37287;47.554;7.844;2023-02-20T14:47:50;98592.94;;;14.50;50.50
50790;BME280;37287;47.554;7.844;2023-02-20T14:50:28;98584.75;;;14.50;50.81
50790;BME280;37287;47.554;7.844;2023-02-20T14:53:12;98579.69;;;14.44;48.50
50790;BME280;37287;47.554;7.844;2023-02-20T14:55:39;98573.06;;;14.45;50.25
50790;BME280;37287;47.554;7.844;2023-02-20T14:58:17;98577.72;;;14.41;49.10
50790;BME280;37287;47.554;7.844;2023-02-20T15:00:46;98571.88;;;14.43;50.91
50790;BME280;37287;47.554;7.844;2023-02-20T15:03:21;98567.59;;;14.42;50.37
50790;BME280;37287;47.554;7.844;2023-02-20T15:06:03;98571.50;;;14.41;49.27